sensor_id;sensor_type;location;lat;lon;timestamp;pressure;altitude;pressure_sealevel;temperature;humidity
36972;BME280;40554;52.122;20.678;2023-01-29T00:01:47;101409.20;;;-1.68;100.00
36972;BME280;40554;52.122;20.678;2023-01-29T00:04:04;101410.24;;;-1.70;100.00
36972;BME280;40554;52.122;20.678;2023-01-29T00:06:20;101408.52;;;-1.72;100.00
36972;BME280;40554;52.122;20.678;2023-01-29T00:08:38;101406.44;;;-1.73;100.00
36972;BME280;40554;52.122;20.678;2023-01-29T00:10:59;101397.23;;;-1.74;100.00
36972;BME280;40554;52.122;20.678;2023-01-29T00:13:16;101395.00;;;-1.75;100.00
36972;BME280;40554;52.122;20.678;2023-01-29T00:15:32;101391.36;;;-1.77;100.00
36972;BME280;40554;52.122;20.678;2023-01-29T00:17:48;101390.32;;;-1.78;100.00
36972;BME280;40554;52.122;20.678;2023-01-29T00:20:05;101390.84;;;-1.78;100.00
36972;BME280;40554;52.122;20.678;2023-01-29T00:22:21;101385.14;;;-1.79;100.00
36972;BME280;40554;52.122;20.678;2023-01-29T00:24:37;101376.10;;;-1.80;100.00
36972;BME280;40554;52.122;20.678;2023-01-29T00:26:54;101374.73;;;-1.81;100.00
36972;BME280;40554;52.122;20.678;2023-01-29T00:29:10;101379.58;;;-1.82;100.00
36972;BME280;40554;52.122;20.678;2023-01-29T00:31:26;101375.42;;;-1.84;100.00
36972;BME280;40554;52.122;20.678;2023-01-29T00:33:43;101372.82;;;-1.85;100.00
36972;BME280;40554;52.122;20.678;2023-01-29T00:36:08;101362.77;;;-1.86;100.00
36972;BME280;40554;52.122;20.678;2023-01-29T00:38:24;101360.52;;;-1.86;100.00
36972;BME280;40554;52.122;20.678;2023-01-29T00:40:41;101359.65;;;-1.86;100.00
36972;BME280;40554;52.122;20.678;2023-01-29T00:43:15;101359.65;;;-1.87;100.00
36972;BME280;40554;52.122;20.678;2023-01-29T00:45:51;101362.44;;;-1.87;100.00
36972;BME280;40554;52.122;20.678;2023-01-29T00:48:07;101355.49;;;-1.87;100.00
36972;BME280;40554;52.122;20.678;2023-01-29T00:50:23;101357.23;;;-1.88;100.00
36972;BME280;40554;52.122;20.678;2023-01-29T00:52:39;101353.75;;;-1.88;100.00
36972;BME280;40554;52.122;20.678;2023-01-29T00:54:58;101348.20;;;-1.88;100.00
36972;BME280;40554;52.122;20.678;2023-01-29T00:57:15;101349.95;;;-1.89;100.00
36972;BME280;40554;52.122;20.678;2023-01-29T00:59:31;101347.70;;;-1.90;100.00
36972;BME280;40554;52.122;20.678;2023-01-29T01:01:47;101342.33;;;-1.91;100.00
36972;BME280;40554;52.122;20.678;2023-01-29T01:04:22;101337.80;;;-1.91;100.00
36972;BME280;40554;52.122;20.678;2023-01-29T01:06:40;101334.88;;;-1.91;100.00
36972;BME280;40554;52.122;20.678;2023-01-29T01:08:56;101326.89;;;-1.93;100.00
36972;BME280;40554;52.122;20.678;2023-01-29T01:11:32;101323.09;;;-1.92;100.00
36972;BME280;40554;52.122;20.678;2023-01-29T01:13:48;101314.94;;;-1.91;100.00
36972;BME280;40554;52.122;20.678;2023-01-29T01:16:13;101310.95;;;-1.91;100.00
36972;BME280;40554;52.122;20.678;2023-01-29T01:18:30;101308.19;;;-1.91;100.00
36972;BME280;40554;52.122;20.678;2023-01-29T01:20:49;101295.70;;;-1.93;100.00
36972;BME280;40554;52.122;20.678;2023-01-29T01:23:06;101292.25;;;-1.94;100.00
36972;BME280;40554;52.122;20.678;2023-01-29T01:25:23;101290.88;;;-1.95;100.00
36972;BME280;40554;52.122;20.678;2023-01-29T01:27:40;101292.60;;;-1.97;100.00
36972;BME280;40554;52.122;20.678;2023-01-29T01:29:56;101288.79;;;-1.97;100.00
36972;BME280;40554;52.122;20.678;2023-01-29T01:32:13;101295.90;;;-1.97;100.00
36972;BME280;40554;52.122;20.678;2023-01-29T01:34:29;101296.75;;;-1.97;100.00
36972;BME280;40554;52.122;20.678;2023-01-29T01:36:45;101296.06;;;-1.97;100.00
36972;BME280;40554;52.122;20.678;2023-01-29T01:39:02;101297.11;;;-1.98;100.00
36972;BME280;40554;52.122;20.678;2023-01-29T01:41:21;101297.45;;;-1.99;100.00
36972;BME280;40554;52.122;20.678;2023-01-29T01:46:43;101300.05;;;-1.99;100.00
36972;BME280;40554;52.122;20.678;2023-01-29T01:49:12;101291.39;;;-1.99;100.00
36972;BME280;40554;52.122;20.678;2023-01-29T01:51:32;101289.65;;;-1.99;100.00
36972;BME280;40554;52.122;20.678;2023-01-29T01:53:59;101296.60;;;-2.01;100.00
36972;BME280;40554;52.122;20.678;2023-01-29T01:56:23;101296.25;;;-2.01;100.00
36972;BME280;40554;52.122;20.678;2023-01-29T01:58:48;101299.89;;;-2.01;100.00
36972;BME280;40554;52.122;20.678;2023-01-29T02:01:08;101303.35;;;-2.02;100.00
36972;BME280;40554;52.122;20.678;2023-01-29T02:03:27;101305.43;;;-2.02;100.00
36972;BME280;40554;52.122;20.678;2023-01-29T02:06:03;101303.35;;;-2.02;100.00
36972;BME280;40554;52.122;20.678;2023-01-29T02:08:55;101298.66;;;-2.02;100.00
36972;BME280;40554;52.122;20.678;2023-01-29T02:11:32;101304.21;;;-2.02;100.00
36972;BME280;40554;52.122;20.678;2023-01-29T02:13:48;101307.16;;;-2.02;100.00
36972;BME280;40554;52.122;20.678;2023-01-29T02:16:08;101303.35;;;-2.01;100.00
36972;BME280;40554;52.122;20.678;2023-01-29T02:18:24;101301.45;;;-2.00;100.00
36972;BME280;40554;52.122;20.678;2023-01-29T02:20:43;101293.48;;;-2.00;100.00
36972;BME280;40554;52.122;20.678;2023-01-29T02:31:29;101303.52;;;-2.02;100.00
36972;BME280;40554;52.122;20.678;2023-01-29T02:34:04;101292.27;;;-2.03;100.00
36972;BME280;40554;52.122;20.678;2023-01-29T02:36:31;101286.72;;;-2.04;100.00
36972;BME280;40554;52.122;20.678;2023-01-29T02:39:23;101281.52;;;-2.05;100.00
36972;BME280;40554;52.122;20.678;2023-01-29T02:44:37;101277.02;;;-2.03;100.00
36972;BME280;40554;52.122;20.678;2023-01-29T02:47:03;101270.94;;;-2.02;100.00
36972;BME280;40554;52.122;20.678;2023-01-29T02:49:42;101270.95;;;-2.03;100.00
36972;BME280;40554;52.122;20.678;2023-01-29T02:52:08;101266.61;;;-2.03;100.00
36972;BME280;40554;52.122;20.678;2023-01-29T02:55:11;101261.76;;;-2.04;100.00
36972;BME280;40554;52.122;20.678;2023-01-29T02:57:34;101262.29;;;-2.04;100.00
36972;BME280;40554;52.122;20.678;2023-01-29T03:00:03;101267.14;;;-2.04;100.00
36972;BME280;40554;52.122;20.678;2023-01-29T03:02:33;101265.23;;;-2.05;100.00
36972;BME280;40554;52.122;20.678;2023-01-29T03:05:00;101257.59;;;-2.04;100.00
36972;BME280;40554;52.122;20.678;2023-01-29T03:07:25;101254.83;;;-2.04;100.00
36972;BME280;40554;52.122;20.678;2023-01-29T03:09:56;101254.31;;;-2.03;100.00
36972;BME280;40554;52.122;20.678;2023-01-29T03:12:20;101249.64;;;-2.03;100.00
36972;BME280;40554;52.122;20.678;2023-01-29T03:14:50;101249.80;;;-2.04;100.00
36972;BME280;40554;52.122;20.678;2023-01-29T03:17:30;101247.73;;;-2.04;100.00
36972;BME280;40554;52.122;20.678;2023-01-29T03:19:49;101245.81;;;-2.04;100.00
36972;BME280;40554;52.122;20.678;2023-01-29T03:22:06;101250.15;;;-2.04;100.00
36972;BME280;40554;52.122;20.678;2023-01-29T03:27:15;101246.69;;;-2.03;100.00
36972;BME280;40554;52.122;20.678;2023-01-29T03:29:53;101249.13;;;-2.03;100.00
36972;BME280;40554;52.122;20.678;2023-01-29T03:32:29;101249.80;;;-2.04;100.00
36972;BME280;40554;52.122;20.678;2023-01-29T03:34:56;101250.33;;;-2.04;100.00
36972;BME280;40554;52.122;20.678;2023-01-29T03:37:40;101249.98;;;-2.04;100.00
36972;BME280;40554;52.122;20.678;2023-01-29T03:39:58;101240.80;;;-2.04;100.00
36972;BME280;40554;52.122;20.678;2023-01-29T03:45:15;101247.03;;;-2.03;100.00
36972;BME280;40554;52.122;20.678;2023-01-29T03:50:25;101246.34;;;-2.02;100.00
36972;BME280;40554;52.122;20.678;2023-01-29T03:53:07;101246.68;;;-2.01;100.00
36972;BME280;40554;52.122;20.678;2023-01-29T03:55:42;101238.20;;;-2.00;100.00
36972;BME280;40554;52.122;20.678;2023-01-29T03:58:08;101239.40;;;-1.99;100.00
36972;BME280;40554;52.122;20.678;2023-01-29T04:00:37;101245.12;;;-1.99;100.00
36972;BME280;40554;52.122;20.678;2023-01-29T04:05:20;101241.13;;;-1.97;100.00
36972;BME280;40554;52.122;20.678;2023-01-29T04:07:39;101236.80;;;-1.96;100.00
36972;BME280;40554;52.122;20.678;2023-01-29T04:10:03;101232.11;;;-1.96;100.00
36972;BME280;40554;52.122;20.678;2023-01-29T04:12:27;101226.75;;;-1.95;100.00
36972;BME280;40554;52.122;20.678;2023-01-29T04:14:44;101230.04;;;-1.95;100.00
36972;BME280;40554;52.122;20.678;2023-01-29T04:17:15;101225.19;;;-1.95;100.00
36972;BME280;40554;52.122;20.678;2023-01-29T04:19:33;101220.16;;;-1.94;100.00
36972;BME280;40554;52.122;20.678;2023-01-29T04:22:21;101215.65;;;-1.95;100.00
36972;BME280;40554;52.122;20.678;2023-01-29T04:24:36;101220.51;;;-1.95;100.00
36972;BME280;40554;52.122;20.678;2023-01-29T04:27:17;101217.05;;;-1.95;100.00
36972;BME280;40554;52.122;20.678;2023-01-29T04:32:52;101211.84;;;-1.94;100.00
36972;BME280;40554;52.122;20.678;2023-01-29T04:35:29;101209.23;;;-1.95;100.00
36972;BME280;40554;52.122;20.678;2023-01-29T04:37:53;101203.16;;;-1.94;100.00
36972;BME280;40554;52.122;20.678;2023-01-29T04:40:19;101200.91;;;-1.94;100.00
36972;BME280;40554;52.122;20.678;2023-01-29T04:42:46;101199.69;;;-1.94;100.00
36972;BME280;40554;52.122;20.678;2023-01-29T04:48:19;101206.11;;;-1.94;100.00
36972;BME280;40554;52.122;20.678;2023-01-29T04:50:43;101212.17;;;-1.93;100.00
36972;BME280;40554;52.122;20.678;2023-01-29T04:55:28;101213.56;;;-1.94;100.00
36972;BME280;40554;52.122;20.678;2023-01-29T04:57:54;101213.56;;;-1.93;100.00
36972;BME280;40554;52.122;20.678;2023-01-29T05:00:23;101210.95;;;-1.93;100.00
36972;BME280;40554;52.122;20.678;2023-01-29T05:02:43;101194.84;;;-1.93;100.00
36972;BME280;40554;52.122;20.678;2023-01-29T05:05:00;101192.07;;;-1.93;100.00
36972;BME280;40554;52.122;20.678;2023-01-29T05:07:17;101186.34;;;-1.93;100.00
36972;BME280;40554;52.122;20.678;2023-01-29T05:09:36;101179.77;;;-1.93;100.00
36972;BME280;40554;52.122;20.678;2023-01-29T05:11:54;101182.54;;;-1.92;100.00
36972;BME280;40554;52.122;20.678;2023-01-29T05:14:12;101187.56;;;-1.92;100.00
36972;BME280;40554;52.122;20.678;2023-01-29T05:16:42;101187.04;;;-1.91;100.00
36972;BME280;40554;52.122;20.678;2023-01-29T05:19:00;101189.46;;;-1.92;100.00
36972;BME280;40554;52.122;20.678;2023-01-29T05:21:17;101196.23;;;-1.91;100.00
36972;BME280;40554;52.122;20.678;2023-01-29T05:23:34;101196.23;;;-1.91;100.00
36972;BME280;40554;52.122;20.678;2023-01-29T05:25:50;101188.76;;;-1.90;100.00
36972;BME280;40554;52.122;20.678;2023-01-29T05:28:08;101189.98;;;-1.89;100.00
36972;BME280;40554;52.122;20.678;2023-01-29T05:30:35;101187.38;;;-1.90;100.00
36972;BME280;40554;52.122;20.678;2023-01-29T05:32:52;101187.20;;;-1.90;100.00
36972;BME280;40554;52.122;20.678;2023-01-29T05:35:08;101185.82;;;-1.89;100.00
36972;BME280;40554;52.122;20.678;2023-01-29T05:37:24;101179.57;;;-1.89;100.00
36972;BME280;40554;52.122;20.678;2023-01-29T05:39:41;101180.26;;;-1.88;100.00
36972;BME280;40554;52.122;20.678;2023-01-29T05:41:58;101172.64;;;-1.87;100.00
36972;BME280;40554;52.122;20.678;2023-01-29T05:44:14;101163.98;;;-1.87;100.00
36972;BME280;40554;52.122;20.678;2023-01-29T05:46:30;101173.49;;;-1.86;100.00
36972;BME280;40554;52.122;20.678;2023-01-29T05:48:47;101163.79;;;-1.86;100.00
36972;BME280;40554;52.122;20.678;2023-01-29T05:51:03;101162.23;;;-1.86;100.00
36972;BME280;40554;52.122;20.678;2023-01-29T05:53:20;101164.83;;;-1.86;100.00
36972;BME280;40554;52.122;20.678;2023-01-29T05:55:36;101167.77;;;-1.85;100.00
36972;BME280;40554;52.122;20.678;2023-01-29T05:57:53;101167.08;;;-1.85;100.00
36972;BME280;40554;52.122;20.678;2023-01-29T06:00:10;101160.14;;;-1.84;100.00
36972;BME280;40554;52.122;20.678;2023-01-29T06:02:29;101163.09;;;-1.84;100.00
36972;BME280;40554;52.122;20.678;2023-01-29T06:04:46;101158.07;;;-1.84;100.00
36972;BME280;40554;52.122;20.678;2023-01-29T06:07:02;101157.19;;;-1.83;100.00
36972;BME280;40554;52.122;20.678;2023-01-29T06:09:20;101159.44;;;-1.83;100.00
36972;BME280;40554;52.122;20.678;2023-01-29T06:11:36;101162.38;;;-1.83;100.00
36972;BME280;40554;52.122;20.678;2023-01-29T06:13:52;101169.84;;;-1.83;100.00
36972;BME280;40554;52.122;20.678;2023-01-29T06:16:11;101172.95;;;-1.83;100.00
36972;BME280;40554;52.122;20.678;2023-01-29T06:18:27;101178.86;;;-1.83;100.00
36972;BME280;40554;52.122;20.678;2023-01-29T06:20:43;101176.77;;;-1.83;100.00
36972;BME280;40554;52.122;20.678;2023-01-29T06:23:00;101176.77;;;-1.82;100.00
36972;BME280;40554;52.122;20.678;2023-01-29T06:25:16;101181.10;;;-1.82;100.00
36972;BME280;40554;52.122;20.678;2023-01-29T06:27:32;101186.13;;;-1.80;100.00
36972;BME280;40554;52.122;20.678;2023-01-29T06:29:48;101189.58;;;-1.80;100.00
36972;BME280;40554;52.122;20.678;2023-01-29T06:32:04;101186.13;;;-1.79;100.00
36972;BME280;40554;52.122;20.678;2023-01-29T06:34:21;101186.11;;;-1.78;100.00
36972;BME280;40554;52.122;20.678;2023-01-29T06:36:37;101174.15;;;-1.77;100.00
36972;BME280;40554;52.122;20.678;2023-01-29T06:38:53;101172.23;;;-1.76;100.00
36972;BME280;40554;52.122;20.678;2023-01-29T06:41:11;101169.28;;;-1.76;100.00
36972;BME280;40554;52.122;20.678;2023-01-29T06:43:27;101172.06;;;-1.76;100.00
36972;BME280;40554;52.122;20.678;2023-01-29T06:45:54;101173.09;;;-1.77;100.00
36972;BME280;40554;52.122;20.678;2023-01-29T06:48:11;101170.15;;;-1.76;100.00
36972;BME280;40554;52.122;20.678;2023-01-29T06:50:27;101172.06;;;-1.76;100.00
36972;BME280;40554;52.122;20.678;2023-01-29T06:52:43;101171.71;;;-1.76;100.00
36972;BME280;40554;52.122;20.678;2023-01-29T06:54:59;101173.09;;;-1.75;100.00
36972;BME280;40554;52.122;20.678;2023-01-29T06:57:15;101170.48;;;-1.74;100.00
36972;BME280;40554;52.122;20.678;2023-01-29T06:59:32;101168.41;;;-1.73;100.00
36972;BME280;40554;52.122;20.678;2023-01-29T07:01:48;101173.60;;;-1.72;100.00
36972;BME280;40554;52.122;20.678;2023-01-29T07:04:04;101172.73;;;-1.71;100.00
36972;BME280;40554;52.122;20.678;2023-01-29T07:06:26;101169.08;;;-1.70;100.00
36972;BME280;40554;52.122;20.678;2023-01-29T07:08:42;101168.54;;;-1.67;100.00
36972;BME280;40554;52.122;20.678;2023-01-29T07:10:59;101161.08;;;-1.65;100.00
36972;BME280;40554;52.122;20.678;2023-01-29T07:13:16;101155.52;;;-1.64;100.00
36972;BME280;40554;52.122;20.678;2023-01-29T07:15:32;101142.86;;;-1.63;100.00
36972;BME280;40554;52.122;20.678;2023-01-29T07:18:00;101137.98;;;-1.61;100.00
36972;BME280;40554;52.122;20.678;2023-01-29T07:20:17;101138.50;;;-1.59;100.00
36972;BME280;40554;52.122;20.678;2023-01-29T07:22:33;101146.11;;;-1.58;100.00
36972;BME280;40554;52.122;20.678;2023-01-29T07:24:49;101152.02;;;-1.57;100.00
36972;BME280;40554;52.122;20.678;2023-01-29T07:27:06;101155.80;;;-1.54;100.00
36972;BME280;40554;52.122;20.678;2023-01-29T07:29:22;101150.77;;;-1.53;100.00
36972;BME280;40554;52.122;20.678;2023-01-29T07:31:38;101153.02;;;-1.51;100.00
36972;BME280;40554;52.122;20.678;2023-01-29T07:33:54;101156.64;;;-1.50;100.00
36972;BME280;40554;52.122;20.678;2023-01-29T07:36:11;101159.41;;;-1.48;100.00
36972;BME280;40554;52.122;20.678;2023-01-29T07:38:28;101165.46;;;-1.47;100.00
36972;BME280;40554;52.122;20.678;2023-01-29T07:40:44;101167.39;;;-1.46;100.00
36972;BME280;40554;52.122;20.678;2023-01-29T07:43:03;101163.20;;;-1.44;100.00
36972;BME280;40554;52.122;20.678;2023-01-29T07:45:20;101163.90;;;-1.44;100.00
36972;BME280;40554;52.122;20.678;2023-01-29T07:47:36;101169.97;;;-1.43;100.00
36972;BME280;40554;52.122;20.678;2023-01-29T07:49:53;101172.90;;;-1.41;100.00
36972;BME280;40554;52.122;20.678;2023-01-29T07:52:09;101176.88;;;-1.38;100.00
36972;BME280;40554;52.122;20.678;2023-01-29T07:54:25;101177.90;;;-1.37;100.00
36972;BME280;40554;52.122;20.678;2023-01-29T07:56:41;101169.89;;;-1.34;100.00
36972;BME280;40554;52.122;20.678;2023-01-29T07:58:58;101162.08;;;-1.31;100.00
36972;BME280;40554;52.122;20.678;2023-01-29T08:01:14;101161.02;;;-1.29;100.00
36972;BME280;40554;52.122;20.678;2023-01-29T08:03:30;101157.20;;;-1.29;100.00
36972;BME280;40554;52.122;20.678;2023-01-29T08:05:47;101158.40;;;-1.28;100.00
36972;BME280;40554;52.122;20.678;2023-01-29T08:08:03;101159.10;;;-1.27;100.00
36972;BME280;40554;52.122;20.678;2023-01-29T08:10:23;101158.22;;;-1.26;100.00
36972;BME280;40554;52.122;20.678;2023-01-29T08:12:39;101158.38;;;-1.25;100.00
36972;BME280;40554;52.122;20.678;2023-01-29T08:14:56;101154.41;;;-1.25;100.00
36972;BME280;40554;52.122;20.678;2023-01-29T08:17:12;101146.24;;;-1.26;100.00
36972;BME280;40554;52.122;20.678;2023-01-29T08:19:28;101142.95;;;-1.26;100.00
36972;BME280;40554;52.122;20.678;2023-01-29T08:21:45;101137.05;;;-1.25;100.00
36972;BME280;40554;52.122;20.678;2023-01-29T08:24:01;101134.60;;;-1.23;100.00
36972;BME280;40554;52.122;20.678;2023-01-29T08:26:22;101135.27;;;-1.19;100.00
36972;BME280;40554;52.122;20.678;2023-01-29T08:45:02;101136.16;;;-0.83;100.00
36972;BME280;40554;52.122;20.678;2023-01-29T08:47:18;101137.66;;;-0.76;100.00
36972;BME280;40554;52.122;20.678;2023-01-29T08:49:35;101140.73;;;-0.70;100.00
36972;BME280;40554;52.122;20.678;2023-01-29T08:51:51;101140.86;;;-0.65;100.00
36972;BME280;40554;52.122;20.678;2023-01-29T08:54:08;101132.99;;;-0.61;100.00
36972;BME280;40554;52.122;20.678;2023-01-29T08:56:24;101130.00;;;-0.58;100.00
36972;BME280;40554;52.122;20.678;2023-01-29T08:58:41;101124.25;;;-0.55;100.00
36972;BME280;40554;52.122;20.678;2023-01-29T09:01:05;101123.19;;;-0.53;100.00
36972;BME280;40554;52.122;20.678;2023-01-29T09:03:21;101117.41;;;-0.49;100.00
36972;BME280;40554;52.122;20.678;2023-01-29T09:05:39;101112.67;;;-0.46;100.00
36972;BME280;40554;52.122;20.678;2023-01-29T09:07:56;101113.84;;;-0.41;100.00
36972;BME280;40554;52.122;20.678;2023-01-29T09:10:12;101111.89;;;-0.37;100.00
36972;BME280;40554;52.122;20.678;2023-01-29T09:12:29;101103.85;;;-0.34;100.00
36972;BME280;40554;52.122;20.678;2023-01-29T09:14:45;101101.55;;;-0.29;100.00
36972;BME280;40554;52.122;20.678;2023-01-29T09:17:01;101093.48;;;-0.25;100.00
36972;BME280;40554;52.122;20.678;2023-01-29T09:19:17;101092.73;;;-0.20;100.00
36972;BME280;40554;52.122;20.678;2023-01-29T09:21:33;101090.23;;;-0.15;100.00
36972;BME280;40554;52.122;20.678;2023-01-29T09:23:50;101093.65;;;-0.10;100.00
36972;BME280;40554;52.122;20.678;2023-01-29T09:26:06;101088.87;;;-0.03;100.00
36972;BME280;40554;52.122;20.678;2023-01-29T09:28:23;101093.27;;;0.06;100.00
36972;BME280;40554;52.122;20.678;2023-01-29T09:30:39;101087.78;;;0.12;100.00
36972;BME280;40554;52.122;20.678;2023-01-29T09:32:56;101090.70;;;0.17;100.00
36972;BME280;40554;52.122;20.678;2023-01-29T09:35:12;101083.56;;;0.15;100.00
36972;BME280;40554;52.122;20.678;2023-01-29T09:37:28;101084.11;;;0.14;100.00
36972;BME280;40554;52.122;20.678;2023-01-29T09:39:45;101089.68;;;0.13;100.00
36972;BME280;40554;52.122;20.678;2023-01-29T09:42:14;101083.77;;;0.13;100.00
36972;BME280;40554;52.122;20.678;2023-01-29T09:47:23;101069.30;;;0.15;100.00
36972;BME280;40554;52.122;20.678;2023-01-29T09:49:51;101071.70;;;0.18;100.00
36972;BME280;40554;52.122;20.678;2023-01-29T09:54:49;101065.64;;;0.29;100.00
36972;BME280;40554;52.122;20.678;2023-01-29T09:57:09;101061.91;;;0.34;100.00
36972;BME280;40554;52.122;20.678;2023-01-29T09:59:30;101054.32;;;0.41;100.00
36972;BME280;40554;52.122;20.678;2023-01-29T10:02:08;101057.55;;;0.46;100.00
36972;BME280;40554;52.122;20.678;2023-01-29T10:07:21;101062.89;;;0.60;100.00
36972;BME280;40554;52.122;20.678;2023-01-29T10:12:33;101053.48;;;0.60;100.00
36972;BME280;40554;52.122;20.678;2023-01-29T10:20:46;101043.77;;;0.49;100.00
36972;BME280;40554;52.122;20.678;2023-01-29T10:25:38;101035.84;;;0.43;100.00
36972;BME280;40554;52.122;20.678;2023-01-29T10:27:58;101033.97;;;0.41;100.00
36972;BME280;40554;52.122;20.678;2023-01-29T10:30:30;101033.69;;;0.36;100.00
36972;BME280;40554;52.122;20.678;2023-01-29T10:32:48;101032.90;;;0.31;100.00
36972;BME280;40554;52.122;20.678;2023-01-29T10:37:44;101030.88;;;0.28;100.00
36972;BME280;40554;52.122;20.678;2023-01-29T10:40:01;101028.44;;;0.28;100.00
36972;BME280;40554;52.122;20.678;2023-01-29T10:42:29;101030.71;;;0.27;100.00
36972;BME280;40554;52.122;20.678;2023-01-29T10:44:58;101026.17;;;0.28;100.00
36972;BME280;40554;52.122;20.678;2023-01-29T11:02:43;101013.67;;;0.14;100.00
36972;BME280;40554;52.122;20.678;2023-01-29T11:05:01;101012.83;;;0.14;100.00
36972;BME280;40554;52.122;20.678;2023-01-29T11:07:18;101006.40;;;0.13;100.00
36972;BME280;40554;52.122;20.678;2023-01-29T11:09:43;101006.04;;;0.14;100.00
36972;BME280;40554;52.122;20.678;2023-01-29T11:12:12;101002.89;;;0.15;100.00
36972;BME280;40554;52.122;20.678;2023-01-29T11:16:58;100996.30;;;0.25;100.00
36972;BME280;40554;52.122;20.678;2023-01-29T11:19:15;100996.58;;;0.29;100.00
36972;BME280;40554;52.122;20.678;2023-01-29T11:21:58;100993.77;;;0.32;100.00
36972;BME280;40554;52.122;20.678;2023-01-29T11:24:15;100986.93;;;0.35;100.00
36972;BME280;40554;52.122;20.678;2023-01-29T11:26:37;100981.67;;;0.37;100.00
36972;BME280;40554;52.122;20.678;2023-01-29T11:28:54;100978.35;;;0.38;100.00
36972;BME280;40554;52.122;20.678;2023-01-29T11:33:32;100963.73;;;0.39;100.00
36972;BME280;40554;52.122;20.678;2023-01-29T11:35:49;100960.94;;;0.39;100.00
36972;BME280;40554;52.122;20.678;2023-01-29T11:40:38;100951.73;;;0.38;100.00
36972;BME280;40554;52.122;20.678;2023-01-29T11:42:54;100947.55;;;0.37;100.00
36972;BME280;40554;52.122;20.678;2023-01-29T11:45:31;100941.14;;;0.37;100.00
36972;BME280;40554;52.122;20.678;2023-01-29T11:47:52;100932.98;;;0.36;100.00
36972;BME280;40554;52.122;20.678;2023-01-29T11:50:19;100932.48;;;0.36;100.00
36972;BME280;40554;52.122;20.678;2023-01-29T11:52:39;100927.79;;;0.36;100.00
36972;BME280;40554;52.122;20.678;2023-01-29T11:55:03;100930.22;;;0.36;100.00
36972;BME280;40554;52.122;20.678;2023-01-29T11:57:32;100930.07;;;0.34;100.00
36972;BME280;40554;52.122;20.678;2023-01-29T11:59:51;100931.52;;;0.30;100.00
36972;BME280;40554;52.122;20.678;2023-01-29T12:04:27;100918.61;;;0.23;100.00
36972;BME280;40554;52.122;20.678;2023-01-29T12:06:43;100916.21;;;0.20;100.00
36972;BME280;40554;52.122;20.678;2023-01-29T12:09:09;100914.71;;;0.17;100.00
36972;BME280;40554;52.122;20.678;2023-01-29T12:11:30;100908.83;;;0.14;100.00
36972;BME280;40554;52.122;20.678;2023-01-29T12:13:53;100903.33;;;0.11;100.00
36972;BME280;40554;52.122;20.678;2023-01-29T12:18:41;100894.59;;;0.04;100.00
36972;BME280;40554;52.122;20.678;2023-01-29T12:21:02;100890.34;;;-0.02;100.00
36972;BME280;40554;52.122;20.678;2023-01-29T12:23:39;100881.35;;;-0.05;100.00
36972;BME280;40554;52.122;20.678;2023-01-29T12:26:03;100882.56;;;-0.05;100.00
36972;BME280;40554;52.122;20.678;2023-01-29T12:30:52;100885.56;;;-0.08;100.00
36972;BME280;40554;52.122;20.678;2023-01-29T12:33:31;100885.59;;;-0.09;100.00
36972;BME280;40554;52.122;20.678;2023-01-29T12:36:08;100884.39;;;-0.11;100.00
36972;BME280;40554;52.122;20.678;2023-01-29T12:38:26;100886.85;;;-0.12;100.00
36972;BME280;40554;52.122;20.678;2023-01-29T12:43:17;100871.09;;;-0.15;100.00
36972;BME280;40554;52.122;20.678;2023-01-29T12:45:35;100865.02;;;-0.16;100.00
36972;BME280;40554;52.122;20.678;2023-01-29T12:48:00;100861.71;;;-0.16;100.00
36972;BME280;40554;52.122;20.678;2023-01-29T12:50:31;100858.59;;;-0.16;100.00
36972;BME280;40554;52.122;20.678;2023-01-29T12:53:13;100850.42;;;-0.17;100.00
36972;BME280;40554;52.122;20.678;2023-01-29T12:55:28;100844.02;;;-0.17;100.00
36972;BME280;40554;52.122;20.678;2023-01-29T13:00:14;100847.98;;;-0.16;100.00
36972;BME280;40554;52.122;20.678;2023-01-29T13:02:51;100846.63;;;-0.17;100.00
36972;BME280;40554;52.122;20.678;2023-01-29T13:05:26;100842.84;;;-0.19;100.00
36972;BME280;40554;52.122;20.678;2023-01-29T13:07:47;100851.34;;;-0.19;100.00
36972;BME280;40554;52.122;20.678;2023-01-29T13:10:11;100855.55;;;-0.21;100.00
36972;BME280;40554;52.122;20.678;2023-01-29T13:12:30;100860.60;;;-0.22;100.00
36972;BME280;40554;52.122;20.678;2023-01-29T13:14:56;100859.23;;;-0.23;100.00
36972;BME280;40554;52.122;20.678;2023-01-29T13:19:48;100857.48;;;-0.23;100.00
36972;BME280;40554;52.122;20.678;2023-01-29T13:22:23;100859.39;;;-0.22;100.00
36972;BME280;40554;52.122;20.678;2023-01-29T13:24:40;100864.61;;;-0.23;100.00
36972;BME280;40554;52.122;20.678;2023-01-29T13:27:02;100871.23;;;-0.25;100.00
36972;BME280;40554;52.122;20.678;2023-01-29T13:29:23;100874.91;;;-0.26;100.00
36972;BME280;40554;52.122;20.678;2023-01-29T13:31:46;100877.41;;;-0.30;100.00
36972;BME280;40554;52.122;20.678;2023-01-29T13:36:26;100871.50;;;-0.30;100.00
36972;BME280;40554;52.122;20.678;2023-01-29T13:38:44;100869.60;;;-0.31;100.00
36972;BME280;40554;52.122;20.678;2023-01-29T13:41:02;100865.75;;;-0.29;100.00
36972;BME280;40554;52.122;20.678;2023-01-29T13:43:21;100857.92;;;-0.29;100.00
36972;BME280;40554;52.122;20.678;2023-01-29T13:45:43;100844.89;;;-0.29;100.00
36972;BME280;40554;52.122;20.678;2023-01-29T13:50:44;100832.91;;;-0.29;100.00
36972;BME280;40554;52.122;20.678;2023-01-29T13:53:04;100827.05;;;-0.32;100.00
36972;BME280;40554;52.122;20.678;2023-01-29T13:55:41;100834.02;;;-0.34;100.00
36972;BME280;40554;52.122;20.678;2023-01-29T13:57:59;100834.56;;;-0.35;100.00